sensor_id;sensor_type;location;lat;lon;timestamp;pressure;altitude;pressure_sealevel;temperature;humidity
55474;BME280;65220;52.214;0.116;2023-05-25T00:01:33;102669.65;;;19.09;29.02
55474;BME280;65220;52.214;0.116;2023-05-25T00:03:58;102673.10;;;19.28;29.12
55474;BME280;65220;52.214;0.116;2023-05-25T00:06:23;102671.49;;;19.01;29.09
55474;BME280;65220;52.214;0.116;2023-05-25T00:08:48;102672.31;;;18.99;29.12
55474;BME280;65220;52.214;0.116;2023-05-25T00:11:14;102672.56;;;18.87;29.11
55474;BME280;65220;52.214;0.116;2023-05-25T00:13:39;102676.03;;;18.92;29.14
55474;BME280;65220;52.214;0.116;2023-05-25T00:16:05;102675.99;;;19.02;29.13
55474;BME280;65220;52.214;0.116;2023-05-25T00:18:31;102674.02;;;18.90;29.13
55474;BME280;65220;52.214;0.116;2023-05-25T00:20:54;102677.55;;;19.06;29.10
55474;BME280;65220;52.214;0.116;2023-05-25T00:23:20;102679.17;;;19.28;29.08
55474;BME280;65220;52.214;0.116;2023-05-25T00:25:45;102683.46;;;18.91;29.11
55474;BME280;65220;52.214;0.116;2023-05-25T00:28:11;102685.67;;;18.91;29.12
55474;BME280;65220;52.214;0.116;2023-05-25T00:30:35;102687.81;;;19.10;29.10
55474;BME280;65220;52.214;0.116;2023-05-25T00:33:01;102684.61;;;18.90;29.12
55474;BME280;65220;52.214;0.116;2023-05-25T00:35:26;102684.79;;;18.86;29.14
55474;BME280;65220;52.214;0.116;2023-05-25T00:37:51;102687.35;;;19.06;29.13
55474;BME280;65220;52.214;0.116;2023-05-25T00:40:17;102681.33;;;18.85;29.14
55474;BME280;65220;52.214;0.116;2023-05-25T00:42:42;102681.29;;;19.04;29.19
55474;BME280;65220;52.214;0.116;2023-05-25T00:45:08;102680.06;;;19.05;29.15
55474;BME280;65220;52.214;0.116;2023-05-25T00:47:33;102682.81;;;18.96;29.13
55474;BME280;65220;52.214;0.116;2023-05-25T00:49:59;102684.13;;;18.85;29.13
55474;BME280;65220;52.214;0.116;2023-05-25T00:52:23;102686.75;;;18.92;29.15
55474;BME280;65220;52.214;0.116;2023-05-25T00:54:50;102688.46;;;18.79;29.19
55474;BME280;65220;52.214;0.116;2023-05-25T00:57:15;102687.85;;;18.77;29.16
55474;BME280;65220;52.214;0.116;2023-05-25T00:59:43;102694.27;;;18.98;29.16
55474;BME280;65220;52.214;0.116;2023-05-25T01:02:07;102694.73;;;19.04;29.13
55474;BME280;65220;52.214;0.116;2023-05-25T01:04:30;102698.98;;;18.84;29.19
55474;BME280;65220;52.214;0.116;2023-05-25T01:06:56;102701.36;;;18.83;29.19
55474;BME280;65220;52.214;0.116;2023-05-25T01:09:21;102701.81;;;18.84;29.14
55474;BME280;65220;52.214;0.116;2023-05-25T01:11:48;102703.30;;;18.84;29.17
55474;BME280;65220;52.214;0.116;2023-05-25T01:14:10;102705.85;;;18.93;29.18
55474;BME280;65220;52.214;0.116;2023-05-25T01:16:36;102705.68;;;18.81;29.17
55474;BME280;65220;52.214;0.116;2023-05-25T01:19:00;102710.52;;;18.74;29.15
55474;BME280;65220;52.214;0.116;2023-05-25T01:21:30;102709.80;;;18.80;29.18
55474;BME280;65220;52.214;0.116;2023-05-25T01:23:58;102712.19;;;18.80;29.17
55474;BME280;65220;52.214;0.116;2023-05-25T01:26:17;102706.82;;;18.63;29.20
55474;BME280;65220;52.214;0.116;2023-05-25T01:28:45;102705.43;;;18.71;29.21
55474;BME280;65220;52.214;0.116;2023-05-25T01:31:07;102704.71;;;18.73;29.20
55474;BME280;65220;52.214;0.116;2023-05-25T01:33:32;102708.26;;;18.62;29.20
55474;BME280;65220;52.214;0.116;2023-05-25T01:35:57;102711.80;;;19.00;29.23
55474;BME280;65220;52.214;0.116;2023-05-25T01:38:22;102706.74;;;18.90;29.21
55474;BME280;65220;52.214;0.116;2023-05-25T01:40:47;102709.12;;;18.79;29.20
55474;BME280;65220;52.214;0.116;2023-05-25T01:43:12;102711.66;;;18.69;29.19
55474;BME280;65220;52.214;0.116;2023-05-25T01:45:38;102715.42;;;18.79;29.21
55474;BME280;65220;52.214;0.116;2023-05-25T01:48:08;102715.80;;;18.66;29.21
55474;BME280;65220;52.214;0.116;2023-05-25T01:50:35;102719.28;;;18.71;29.17
55474;BME280;65220;52.214;0.116;2023-05-25T01:52:58;102722.21;;;18.73;29.16
55474;BME280;65220;52.214;0.116;2023-05-25T01:55:19;102724.16;;;18.81;29.16
55474;BME280;65220;52.214;0.116;2023-05-25T01:57:49;102724.62;;;19.21;29.17
55474;BME280;65220;52.214;0.116;2023-05-25T02:00:10;102723.60;;;18.74;29.21
55474;BME280;65220;52.214;0.116;2023-05-25T02:02:35;102724.54;;;18.96;29.20
55474;BME280;65220;52.214;0.116;2023-05-25T02:05:00;102724.54;;;18.74;29.20
55474;BME280;65220;52.214;0.116;2023-05-25T02:07:25;102725.51;;;18.59;29.23
55474;BME280;65220;52.214;0.116;2023-05-25T02:09:50;102724.84;;;18.56;29.22
55474;BME280;65220;52.214;0.116;2023-05-25T02:12:15;102726.39;;;18.69;29.21
55474;BME280;65220;52.214;0.116;2023-05-25T02:14:40;102728.96;;;18.67;29.23
55474;BME280;65220;52.214;0.116;2023-05-25T02:17:06;102727.83;;;18.67;29.20
55474;BME280;65220;52.214;0.116;2023-05-25T02:19:31;102725.43;;;18.48;29.22
55474;BME280;65220;52.214;0.116;2023-05-25T02:21:56;102727.13;;;18.57;29.22
55474;BME280;65220;52.214;0.116;2023-05-25T02:24:22;102730.10;;;18.45;29.24
55474;BME280;65220;52.214;0.116;2023-05-25T02:26:46;102727.05;;;18.72;29.26
55474;BME280;65220;52.214;0.116;2023-05-25T02:29:12;102727.39;;;18.53;29.24
55474;BME280;65220;52.214;0.116;2023-05-25T02:31:37;102729.95;;;18.43;29.23
55474;BME280;65220;52.214;0.116;2023-05-25T02:34:02;102729.26;;;18.44;29.23
55474;BME280;65220;52.214;0.116;2023-05-25T02:36:27;102729.39;;;18.69;29.25
55474;BME280;65220;52.214;0.116;2023-05-25T02:38:52;102729.95;;;18.67;29.20
55474;BME280;65220;52.214;0.116;2023-05-25T02:41:18;102729.66;;;18.78;29.20
55474;BME280;65220;52.214;0.116;2023-05-25T02:43:43;102728.67;;;18.71;29.25
55474;BME280;65220;52.214;0.116;2023-05-25T02:46:08;102733.36;;;18.78;29.28
55474;BME280;65220;52.214;0.116;2023-05-25T02:48:34;102731.03;;;18.75;29.29
55474;BME280;65220;52.214;0.116;2023-05-25T02:50:59;102731.77;;;18.53;29.28
55474;BME280;65220;52.214;0.116;2023-05-25T02:53:24;102729.84;;;18.50;29.30
55474;BME280;65220;52.214;0.116;2023-05-25T02:55:50;102733.48;;;18.90;29.32
55474;BME280;65220;52.214;0.116;2023-05-25T02:58:15;102731.57;;;18.34;29.34
55474;BME280;65220;52.214;0.116;2023-05-25T03:00:40;102733.35;;;18.51;29.29
55474;BME280;65220;52.214;0.116;2023-05-25T03:03:05;102730.31;;;18.74;29.34
55474;BME280;65220;52.214;0.116;2023-05-25T03:05:30;102732.48;;;18.52;29.33
55474;BME280;65220;52.214;0.116;2023-05-25T03:07:56;102730.38;;;18.61;29.35
55474;BME280;65220;52.214;0.116;2023-05-25T03:10:21;102731.09;;;18.62;29.33
55474;BME280;65220;52.214;0.116;2023-05-25T03:12:47;102731.19;;;18.76;29.32
55474;BME280;65220;52.214;0.116;2023-05-25T03:15:12;102736.41;;;18.81;29.34
55474;BME280;65220;52.214;0.116;2023-05-25T03:17:37;102735.67;;;18.55;29.32
55474;BME280;65220;52.214;0.116;2023-05-25T03:20:02;102737.08;;;18.47;29.36
55474;BME280;65220;52.214;0.116;2023-05-25T03:22:27;102739.34;;;18.38;29.34
55474;BME280;65220;52.214;0.116;2023-05-25T03:24:53;102738.92;;;18.60;29.39
55474;BME280;65220;52.214;0.116;2023-05-25T03:27:18;102739.70;;;18.52;29.38
55474;BME280;65220;52.214;0.116;2023-05-25T03:29:43;102738.72;;;18.40;29.37
55474;BME280;65220;52.214;0.116;2023-05-25T03:32:08;102740.53;;;18.81;29.34
55474;BME280;65220;52.214;0.116;2023-05-25T03:34:33;102743.13;;;18.20;29.36
55474;BME280;65220;52.214;0.116;2023-05-25T03:36:58;102744.74;;;18.84;29.35
55474;BME280;65220;52.214;0.116;2023-05-25T03:39:24;102743.67;;;18.58;29.38
55474;BME280;65220;52.214;0.116;2023-05-25T03:41:49;102745.88;;;18.62;29.37
55474;BME280;65220;52.214;0.116;2023-05-25T03:44:14;102750.62;;;18.21;29.34
55474;BME280;65220;52.214;0.116;2023-05-25T03:46:39;102750.72;;;18.34;29.44
55474;BME280;65220;52.214;0.116;2023-05-25T03:49:04;102750.05;;;18.46;29.29
55474;BME280;65220;52.214;0.116;2023-05-25T03:51:30;102749.85;;;18.66;29.31
55474;BME280;65220;52.214;0.116;2023-05-25T03:53:55;102749.49;;;18.10;29.32
55474;BME280;65220;52.214;0.116;2023-05-25T03:56:20;102752.56;;;18.55;29.30
55474;BME280;65220;52.214;0.116;2023-05-25T03:58:45;102752.72;;;18.54;29.31
55474;BME280;65220;52.214;0.116;2023-05-25T04:01:10;102751.41;;;18.62;29.31
55474;BME280;65220;52.214;0.116;2023-05-25T04:03:35;102754.43;;;18.53;29.30
55474;BME280;65220;52.214;0.116;2023-05-25T04:06:01;102749.96;;;18.41;29.31
55474;BME280;65220;52.214;0.116;2023-05-25T04:08:28;102749.67;;;18.49;29.31
55474;BME280;65220;52.214;0.116;2023-05-25T04:10:52;102751.65;;;18.48;29.38
55474;BME280;65220;52.214;0.116;2023-05-25T04:13:17;102751.95;;;18.39;29.30
55474;BME280;65220;52.214;0.116;2023-05-25T04:15:43;102751.75;;;18.12;29.27
55474;BME280;65220;52.214;0.116;2023-05-25T04:18:08;102754.09;;;18.44;29.26
55474;BME280;65220;52.214;0.116;2023-05-25T04:20:33;102755.89;;;18.20;29.27
55474;BME280;65220;52.214;0.116;2023-05-25T04:22:58;102762.38;;;18.54;29.25
55474;BME280;65220;52.214;0.116;2023-05-25T04:25:23;102761.50;;;18.46;29.28
55474;BME280;65220;52.214;0.116;2023-05-25T04:27:49;102765.69;;;18.54;29.26
55474;BME280;65220;52.214;0.116;2023-05-25T04:30:14;102765.82;;;18.48;29.26
55474;BME280;65220;52.214;0.116;2023-05-25T04:32:39;102769.66;;;18.25;29.26
55474;BME280;65220;52.214;0.116;2023-05-25T04:35:05;102768.98;;;18.65;29.21
55474;BME280;65220;52.214;0.116;2023-05-25T04:37:30;102772.61;;;18.59;29.22
55474;BME280;65220;52.214;0.116;2023-05-25T04:39:55;102777.45;;;18.49;29.24
55474;BME280;65220;52.214;0.116;2023-05-25T04:42:20;102780.28;;;19.02;29.23
55474;BME280;65220;52.214;0.116;2023-05-25T04:44:46;102783.59;;;18.43;29.25
55474;BME280;65220;52.214;0.116;2023-05-25T04:47:11;102782.33;;;18.52;29.27
55474;BME280;65220;52.214;0.116;2023-05-25T04:49:36;102784.06;;;18.61;29.22
55474;BME280;65220;52.214;0.116;2023-05-25T04:52:01;102788.80;;;18.48;29.22
55474;BME280;65220;52.214;0.116;2023-05-25T04:54:26;102792.91;;;18.45;29.20
55474;BME280;65220;52.214;0.116;2023-05-25T04:56:51;102794.39;;;18.55;29.22
55474;BME280;65220;52.214;0.116;2023-05-25T04:59:17;102797.23;;;18.43;29.23
55474;BME280;65220;52.214;0.116;2023-05-25T05:01:42;102798.81;;;18.41;29.23
55474;BME280;65220;52.214;0.116;2023-05-25T05:04:07;102803.62;;;18.74;29.23
55474;BME280;65220;52.214;0.116;2023-05-25T05:06:32;102806.86;;;18.94;29.22
55474;BME280;65220;52.214;0.116;2023-05-25T05:08:58;102808.08;;;18.51;29.26
55474;BME280;65220;52.214;0.116;2023-05-25T05:11:23;102805.39;;;18.54;29.25
55474;BME280;65220;52.214;0.116;2023-05-25T05:13:48;102802.43;;;18.84;29.23
55474;BME280;65220;52.214;0.116;2023-05-25T05:16:14;102803.00;;;18.55;29.24
55474;BME280;65220;52.214;0.116;2023-05-25T05:18:38;102806.48;;;18.66;29.25
55474;BME280;65220;52.214;0.116;2023-05-25T05:21:04;102809.17;;;18.64;29.25
55474;BME280;65220;52.214;0.116;2023-05-25T05:23:29;102809.77;;;18.51;29.26
55474;BME280;65220;52.214;0.116;2023-05-25T05:25:54;102813.47;;;18.76;29.23
55474;BME280;65220;52.214;0.116;2023-05-25T05:28:19;102814.32;;;18.51;29.25
55474;BME280;65220;52.214;0.116;2023-05-25T05:30:44;102818.15;;;18.62;29.19
55474;BME280;65220;52.214;0.116;2023-05-25T05:33:09;102817.87;;;18.66;29.19
55474;BME280;65220;52.214;0.116;2023-05-25T05:35:35;102821.54;;;18.42;29.20
55474;BME280;65220;52.214;0.116;2023-05-25T05:38:00;102822.77;;;18.22;29.19
55474;BME280;65220;52.214;0.116;2023-05-25T05:40:25;102820.69;;;18.67;29.18
55474;BME280;65220;52.214;0.116;2023-05-25T05:42:50;102818.11;;;18.66;29.18
55474;BME280;65220;52.214;0.116;2023-05-25T05:45:16;102819.31;;;18.66;29.27
55474;BME280;65220;52.214;0.116;2023-05-25T05:47:41;102823.37;;;18.41;29.27
55474;BME280;65220;52.214;0.116;2023-05-25T05:50:07;102830.00;;;18.64;29.23
55474;BME280;65220;52.214;0.116;2023-05-25T05:52:31;102839.01;;;18.35;29.18
55474;BME280;65220;52.214;0.116;2023-05-25T05:54:56;102841.36;;;18.20;29.19
55474;BME280;65220;52.214;0.116;2023-05-25T05:57:22;102845.04;;;18.22;29.25
55474;BME280;65220;52.214;0.116;2023-05-25T05:59:47;102848.30;;;18.70;29.24
55474;BME280;65220;52.214;0.116;2023-05-25T06:02:13;102848.25;;;18.12;29.22
55474;BME280;65220;52.214;0.116;2023-05-25T06:04:38;102850.82;;;18.88;29.21
55474;BME280;65220;52.214;0.116;2023-05-25T06:07:04;102847.70;;;18.65;29.21
55474;BME280;65220;52.214;0.116;2023-05-25T06:09:29;102850.69;;;18.71;29.24
55474;BME280;65220;52.214;0.116;2023-05-25T06:11:54;102851.87;;;18.24;29.20
55474;BME280;65220;52.214;0.116;2023-05-25T06:14:19;102851.24;;;18.51;29.23
55474;BME280;65220;52.214;0.116;2023-05-25T06:16:45;102851.97;;;18.13;29.23
55474;BME280;65220;52.214;0.116;2023-05-25T06:19:10;102854.34;;;18.23;29.24
55474;BME280;65220;52.214;0.116;2023-05-25T06:21:35;102858.10;;;18.34;29.38
55474;BME280;65220;52.214;0.116;2023-05-25T06:24:00;102860.01;;;18.69;29.30
55474;BME280;65220;52.214;0.116;2023-05-25T06:26:25;102861.14;;;18.94;29.29
55474;BME280;65220;52.214;0.116;2023-05-25T06:28:50;102860.23;;;18.41;29.42
55474;BME280;65220;52.214;0.116;2023-05-25T06:31:16;102863.73;;;18.64;29.36
55474;BME280;65220;52.214;0.116;2023-05-25T06:33:41;102865.00;;;18.75;29.31
55474;BME280;65220;52.214;0.116;2023-05-25T06:36:07;102864.54;;;18.32;29.33
55474;BME280;65220;52.214;0.116;2023-05-25T06:38:31;102865.48;;;18.61;29.26
55474;BME280;65220;52.214;0.116;2023-05-25T06:40:56;102867.78;;;18.45;29.27
55474;BME280;65220;52.214;0.116;2023-05-25T06:43:21;102869.08;;;18.37;29.31
55474;BME280;65220;52.214;0.116;2023-05-25T06:45:48;102869.95;;;18.24;29.24
55474;BME280;65220;52.214;0.116;2023-05-25T06:48:12;102873.67;;;18.85;29.24
55474;BME280;65220;52.214;0.116;2023-05-25T06:50:38;102877.82;;;18.66;29.24
55474;BME280;65220;52.214;0.116;2023-05-25T06:53:03;102878.99;;;18.42;29.24
55474;BME280;65220;52.214;0.116;2023-05-25T06:55:28;102882.38;;;18.78;29.25
55474;BME280;65220;52.214;0.116;2023-05-25T06:57:53;102881.02;;;18.43;29.24
55474;BME280;65220;52.214;0.116;2023-05-25T07:00:19;102883.15;;;18.55;29.24
55474;BME280;65220;52.214;0.116;2023-05-25T07:02:44;102880.66;;;18.78;29.29
55474;BME280;65220;52.214;0.116;2023-05-25T07:05:09;102884.98;;;18.83;29.25
55474;BME280;65220;52.214;0.116;2023-05-25T07:07:34;102885.54;;;18.92;29.30
55474;BME280;65220;52.214;0.116;2023-05-25T07:10:01;102884.38;;;18.81;29.41
55474;BME280;65220;52.214;0.116;2023-05-25T07:12:25;102885.44;;;18.46;29.61
55474;BME280;65220;52.214;0.116;2023-05-25T07:14:50;102884.98;;;19.17;29.54
55474;BME280;65220;52.214;0.116;2023-05-25T07:17:16;102884.23;;;18.01;29.89
55474;BME280;65220;52.214;0.116;2023-05-25T07:19:41;102889.36;;;18.10;29.90
55474;BME280;65220;52.214;0.116;2023-05-25T07:22:06;102890.89;;;18.71;29.68
55474;BME280;65220;52.214;0.116;2023-05-25T07:24:31;102892.00;;;18.47;29.63
55474;BME280;65220;52.214;0.116;2023-05-25T07:26:57;102895.08;;;18.56;29.62
55474;BME280;65220;52.214;0.116;2023-05-25T07:29:22;102896.53;;;18.67;29.55
55474;BME280;65220;52.214;0.116;2023-05-25T07:31:47;102895.58;;;18.78;29.44
55474;BME280;65220;52.214;0.116;2023-05-25T07:34:12;102896.51;;;19.01;29.28
55474;BME280;65220;52.214;0.116;2023-05-25T07:36:37;102896.99;;;18.68;29.49
55474;BME280;65220;52.214;0.116;2023-05-25T07:39:03;102898.86;;;18.90;29.40
55474;BME280;65220;52.214;0.116;2023-05-25T07:41:28;102904.76;;;18.68;28.99
55474;BME280;65220;52.214;0.116;2023-05-25T07:43:53;102903.92;;;18.63;29.20
55474;BME280;65220;52.214;0.116;2023-05-25T07:46:18;102907.82;;;18.62;28.86
55474;BME280;65220;52.214;0.116;2023-05-25T07:48:44;102911.51;;;18.13;28.64
55474;BME280;65220;52.214;0.116;2023-05-25T07:51:09;102910.03;;;18.47;28.85
55474;BME280;65220;52.214;0.116;2023-05-25T07:53:34;102915.00;;;17.73;29.34
55474;BME280;65220;52.214;0.116;2023-05-25T07:55:59;102916.94;;;18.79;28.62
55474;BME280;65220;52.214;0.116;2023-05-25T07:58:24;102919.01;;;18.70;28.66
55474;BME280;65220;52.214;0.116;2023-05-25T08:00:49;102919.49;;;18.11;28.68
55474;BME280;65220;52.214;0.116;2023-05-25T08:03:15;102919.53;;;18.50;28.48
55474;BME280;65220;52.214;0.116;2023-05-25T08:05:40;102926.38;;;18.75;28.47
55474;BME280;65220;52.214;0.116;2023-05-25T08:08:06;102929.01;;;18.50;28.37
55474;BME280;65220;52.214;0.116;2023-05-25T08:10:31;102930.79;;;18.55;28.39
55474;BME280;65220;52.214;0.116;2023-05-25T08:12:57;102925.56;;;18.72;28.38
55474;BME280;65220;52.214;0.116;2023-05-25T08:15:21;102929.52;;;18.65;28.40
55474;BME280;65220;52.214;0.116;2023-05-25T08:17:47;102938.00;;;18.84;28.37
55474;BME280;65220;52.214;0.116;2023-05-25T08:20:13;102940.07;;;18.83;28.37
55474;BME280;65220;52.214;0.116;2023-05-25T08:22:37;102943.75;;;18.85;28.16
55474;BME280;65220;52.214;0.116;2023-05-25T08:25:03;102947.44;;;18.60;28.29
55474;BME280;65220;52.214;0.116;2023-05-25T08:27:28;102952.26;;;18.56;28.30
55474;BME280;65220;52.214;0.116;2023-05-25T08:29:53;102954.14;;;18.89;28.23
55474;BME280;65220;52.214;0.116;2023-05-25T08:32:18;102950.58;;;18.72;28.22
55474;BME280;65220;52.214;0.116;2023-05-25T08:34:44;102953.67;;;18.70;28.23
55474;BME280;65220;52.214;0.116;2023-05-25T08:37:09;102953.19;;;18.71;28.17
55474;BME280;65220;52.214;0.116;2023-05-25T08:39:34;102954.54;;;18.57;28.24
55474;BME280;65220;52.214;0.116;2023-05-25T08:41:59;102953.46;;;18.54;28.17
55474;BME280;65220;52.214;0.116;2023-05-25T08:44:25;102952.76;;;18.67;27.99
55474;BME280;65220;52.214;0.116;2023-05-25T08:46:50;102950.50;;;18.45;28.05
55474;BME280;65220;52.214;0.116;2023-05-25T08:49:15;102948.90;;;18.19;28.00
55474;BME280;65220;52.214;0.116;2023-05-25T08:51:41;102949.36;;;17.68;28.21
55474;BME280;65220;52.214;0.116;2023-05-25T08:54:07;102949.38;;;18.84;27.89
55474;BME280;65220;52.214;0.116;2023-05-25T08:56:32;102947.30;;;18.73;27.93
55474;BME280;65220;52.214;0.116;2023-05-25T08:59:01;102952.73;;;18.89;27.89
55474;BME280;65220;52.214;0.116;2023-05-25T09:01:22;102954.94;;;18.59;27.76
55474;BME280;65220;52.214;0.116;2023-05-25T09:03:47;102954.65;;;18.32;27.91
55474;BME280;65220;52.214;0.116;2023-05-25T09:06:11;102961.09;;;18.58;27.78
55474;BME280;65220;52.214;0.116;2023-05-25T09:08:37;102959.12;;;18.45;27.82
55474;BME280;65220;52.214;0.116;2023-05-25T09:11:02;102959.62;;;18.18;27.83
55474;BME280;65220;52.214;0.116;2023-05-25T09:13:27;102961.01;;;18.17;27.83
55474;BME280;65220;52.214;0.116;2023-05-25T09:15:52;102960.96;;;18.68;27.60
55474;BME280;65220;52.214;0.116;2023-05-25T09:18:18;102961.78;;;18.66;27.63
55474;BME280;65220;52.214;0.116;2023-05-25T09:20:43;102965.21;;;18.83;27.61
55474;BME280;65220;52.214;0.116;2023-05-25T09:23:09;102963.88;;;18.26;27.71
55474;BME280;65220;52.214;0.116;2023-05-25T09:25:34;102968.04;;;18.68;27.51
55474;BME280;65220;52.214;0.116;2023-05-25T09:27:59;102972.28;;;18.78;27.38
55474;BME280;65220;52.214;0.116;2023-05-25T09:30:24;102970.50;;;19.05;27.26
55474;BME280;65220;52.214;0.116;2023-05-25T09:32:49;102968.89;;;18.61;27.52
55474;BME280;65220;52.214;0.116;2023-05-25T09:35:14;102974.58;;;18.05;27.73
55474;BME280;65220;52.214;0.116;2023-05-25T09:37:40;102974.88;;;18.38;27.63
55474;BME280;65220;52.214;0.116;2023-05-25T09:40:06;102973.46;;;18.60;27.59
55474;BME280;65220;52.214;0.116;2023-05-25T09:42:30;102975.41;;;18.29;27.76
55474;BME280;65220;52.214;0.116;2023-05-25T09:44:57;102972.72;;;18.66;27.74
55474;BME280;65220;52.214;0.116;2023-05-25T09:47:20;102975.33;;;18.45;27.63
55474;BME280;65220;52.214;0.116;2023-05-25T09:49:45;102974.82;;;18.97;27.71
55474;BME280;65220;52.214;0.116;2023-05-25T09:52:11;102978.59;;;18.74;27.66
55474;BME280;65220;52.214;0.116;2023-05-25T09:54:36;102979.70;;;18.43;27.69
55474;BME280;65220;52.214;0.116;2023-05-25T09:57:02;102982.33;;;18.60;27.77
55474;BME280;65220;52.214;0.116;2023-05-25T09:59:26;102980.26;;;19.04;27.74
55474;BME280;65220;52.214;0.116;2023-05-25T10:01:51;102980.38;;;18.72;27.74
55474;BME280;65220;52.214;0.116;2023-05-25T10:04:16;102983.07;;;18.26;27.77
55474;BME280;65220;52.214;0.116;2023-05-25T10:06:43;102981.21;;;18.54;27.85
55474;BME280;65220;52.214;0.116;2023-05-25T10:09:08;102978.65;;;18.47;27.80
55474;BME280;65220;52.214;0.116;2023-05-25T10:11:33;102980.23;;;18.34;27.81
55474;BME280;65220;52.214;0.116;2023-05-25T10:13:59;102983.51;;;18.33;27.83
55474;BME280;65220;52.214;0.116;2023-05-25T10:16:25;102979.65;;;18.55;27.77
55474;BME280;65220;52.214;0.116;2023-05-25T10:18:54;102988.75;;;18.48;27.75
55474;BME280;65220;52.214;0.116;2023-05-25T10:21:15;102990.91;;;18.96;27.34
55474;BME280;65220;52.214;0.116;2023-05-25T10:23:44;102994.54;;;18.93;27.19
55474;BME280;65220;52.214;0.116;2023-05-25T10:26:04;103001.10;;;18.43;27.46
55474;BME280;65220;52.214;0.116;2023-05-25T10:28:35;103006.46;;;18.42;27.51
55474;BME280;65220;52.214;0.116;2023-05-25T10:30:56;103005.21;;;18.52;27.48
55474;BME280;65220;52.214;0.116;2023-05-25T10:33:20;103007.35;;;18.16;27.59
55474;BME280;65220;52.214;0.116;2023-05-25T10:35:45;103007.31;;;17.97;27.64
55474;BME280;65220;52.214;0.116;2023-05-25T10:38:11;103011.69;;;18.17;27.63
55474;BME280;65220;52.214;0.116;2023-05-25T10:40:35;103013.95;;;18.50;27.61
55474;BME280;65220;52.214;0.116;2023-05-25T10:43:01;103010.81;;;18.50;27.53
55474;BME280;65220;52.214;0.116;2023-05-25T10:45:26;103008.55;;;18.79;27.24
55474;BME280;65220;52.214;0.116;2023-05-25T10:47:51;103013.32;;;18.86;27.52
55474;BME280;65220;52.214;0.116;2023-05-25T10:50:19;103010.54;;;18.03;27.51
55474;BME280;65220;52.214;0.116;2023-05-25T10:52:41;103011.60;;;17.97;27.39
55474;BME280;65220;52.214;0.116;2023-05-25T10:55:07;103012.76;;;18.32;27.58
55474;BME280;65220;52.214;0.116;2023-05-25T10:57:32;103010.39;;;18.30;27.53
55474;BME280;65220;52.214;0.116;2023-05-25T11:00:01;103004.26;;;18.44;27.46
55474;BME280;65220;52.214;0.116;2023-05-25T11:02:22;103002.92;;;18.43;27.40
55474;BME280;65220;52.214;0.116;2023-05-25T11:04:48;103009.36;;;18.45;27.49
55474;BME280;65220;52.214;0.116;2023-05-25T11:07:14;103008.29;;;18.41;27.49
55474;BME280;65220;52.214;0.116;2023-05-25T11:09:41;103010.20;;;18.45;27.48
55474;BME280;65220;52.214;0.116;2023-05-25T11:12:03;103012.38;;;18.50;27.47
55474;BME280;65220;52.214;0.116;2023-05-25T11:14:29;103007.18;;;18.80;27.41
55474;BME280;65220;52.214;0.116;2023-05-25T11:17:04;103007.40;;;18.56;27.55
55474;BME280;65220;52.214;0.116;2023-05-25T11:19:20;103001.52;;;18.27;27.83
55474;BME280;65220;52.214;0.116;2023-05-25T11:21:44;103000.67;;;18.30;27.89
55474;BME280;65220;52.214;0.116;2023-05-25T11:24:12;103000.96;;;18.47;27.70
55474;BME280;65220;52.214;0.116;2023-05-25T11:26:35;102999.06;;;18.96;27.49
55474;BME280;65220;52.214;0.116;2023-05-25T11:29:01;103003.19;;;18.52;27.58
55474;BME280;65220;52.214;0.116;2023-05-25T11:31:29;103000.37;;;18.29;27.55
55474;BME280;65220;52.214;0.116;2023-05-25T11:33:54;103001.72;;;18.29;27.58
55474;BME280;65220;52.214;0.116;2023-05-25T11:36:16;103006.15;;;18.48;27.54
55474;BME280;65220;52.214;0.116;2023-05-25T11:38:41;103004.57;;;18.32;27.63
55474;BME280;65220;52.214;0.116;2023-05-25T11:41:15;103002.18;;;18.59;27.45
55474;BME280;65220;52.214;0.116;2023-05-25T11:43:32;102999.15;;;19.11;27.49
55474;BME280;65220;52.214;0.116;2023-05-25T11:45:56;103000.04;;;18.79;27.50
55474;BME280;65220;52.214;0.116;2023-05-25T11:48:21;102994.11;;;18.37;27.46
55474;BME280;65220;52.214;0.116;2023-05-25T11:50:47;102997.05;;;18.77;27.56
55474;BME280;65220;52.214;0.116;2023-05-25T11:53:12;103000.93;;;18.97;27.67
55474;BME280;65220;52.214;0.116;2023-05-25T11:55:37;102996.48;;;18.56;27.56
55474;BME280;65220;52.214;0.116;2023-05-25T11:58:02;103002.32;;;18.50;27.58
55474;BME280;65220;52.214;0.116;2023-05-25T12:00:28;103000.78;;;18.39;27.65
55474;BME280;65220;52.214;0.116;2023-05-25T12:02:53;103003.45;;;18.51;27.59
55474;BME280;65220;52.214;0.116;2023-05-25T12:05:18;103003.62;;;18.18;27.68
55474;BME280;65220;52.214;0.116;2023-05-25T12:07:44;103001.56;;;18.47;27.61
55474;BME280;65220;52.214;0.116;2023-05-25T12:10:10;103004.12;;;18.53;27.64
55474;BME280;65220;52.214;0.116;2023-05-25T12:12:39;103002.23;;;18.69;27.68
55474;BME280;65220;52.214;0.116;2023-05-25T12:14:59;103003.50;;;18.42;27.75
55474;BME280;65220;52.214;0.116;2023-05-25T12:17:24;103003.62;;;18.20;27.81
55474;BME280;65220;52.214;0.116;2023-05-25T12:19:50;103006.39;;;18.53;27.83
55474;BME280;65220;52.214;0.116;2023-05-25T12:22:14;103007.29;;;18.46;27.89
55474;BME280;65220;52.214;0.116;2023-05-25T12:24:41;103007.83;;;18.67;27.78
55474;BME280;65220;52.214;0.116;2023-05-25T12:27:15;103008.17;;;18.09;27.72
55474;BME280;65220;52.214;0.116;2023-05-25T12:29:30;103009.17;;;18.85;27.57
55474;BME280;65220;52.214;0.116;2023-05-25T12:32:01;103012.09;;;18.42;27.67
55474;BME280;65220;52.214;0.116;2023-05-25T12:34:26;103010.43;;;18.33;27.80
55474;BME280;65220;52.214;0.116;2023-05-25T12:36:47;103007.80;;;18.76;27.77
55474;BME280;65220;52.214;0.116;2023-05-25T12:39:13;103011.49;;;18.44;27.84